sensor_id;sensor_type;location;lat;lon;timestamp;temperature;humidity
49052;DHT22;34866;48.670;18.260;2023-06-01T00:01:52;307.30;537.60
49052;DHT22;34866;48.670;18.260;2023-06-01T00:04:17;282.50;870.40
49052;DHT22;34866;48.670;18.260;2023-06-01T00:06:43;282.40;1100.80
49052;DHT22;34866;48.670;18.260;2023-06-01T00:09:09;282.50;1049.60
49052;DHT22;34866;48.670;18.260;2023-06-01T00:11:36;307.20;921.60
49052;DHT22;34866;48.670;18.260;2023-06-01T00:14:02;282.30;1126.40
49052;DHT22;34866;48.670;18.260;2023-06-01T00:16:28;282.30;1126.40
49052;DHT22;34866;48.670;18.260;2023-06-01T00:18:57;282.30;1100.80
49052;DHT22;34866;48.670;18.260;2023-06-01T00:21:26;281.90;1305.60
49052;DHT22;34866;48.670;18.260;2023-06-01T00:23:52;282.00;1561.60
49052;DHT22;34866;48.670;18.260;2023-06-01T00:26:17;282.10;1510.40
49052;DHT22;34866;48.670;18.260;2023-06-01T00:28:43;282.00;1433.60
49052;DHT22;34866;48.670;18.260;2023-06-01T00:31:08;282.00;1484.80
49052;DHT22;34866;48.670;18.260;2023-06-01T00:33:34;282.00;1459.20
49052;DHT22;34866;48.670;18.260;2023-06-01T00:36:01;282.00;1459.20
49052;DHT22;34866;48.670;18.260;2023-06-01T00:38:29;281.80;1356.80
49052;DHT22;34866;48.670;18.260;2023-06-01T00:40:58;281.60;1638.40
49052;DHT22;34866;48.670;18.260;2023-06-01T00:43:24;281.80;1100.80
49052;DHT22;34866;48.670;18.260;2023-06-01T00:45:50;281.90;921.60
49052;DHT22;34866;48.670;18.260;2023-06-01T00:48:16;282.00;972.80
49052;DHT22;34866;48.670;18.260;2023-06-01T00:50:42;281.70;1203.20
49052;DHT22;34866;48.670;18.260;2023-06-01T00:53:10;256.90;1587.20
49052;DHT22;34866;48.670;18.260;2023-06-01T00:55:36;256.90;1792.00
49052;DHT22;34866;48.670;18.260;2023-06-01T00:58:02;281.60;1305.60
49052;DHT22;34866;48.670;18.260;2023-06-01T01:00:27;281.60;1484.80
49052;DHT22;34866;48.670;18.260;2023-06-01T01:02:54;281.70;1356.80
49052;DHT22;34866;48.670;18.260;2023-06-01T01:05:22;281.60;1459.20
49052;DHT22;34866;48.670;18.260;2023-06-01T01:10:33;256.90;1254.40
49052;DHT22;34866;48.670;18.260;2023-06-01T01:18:12;256.90;1612.80
49052;DHT22;34866;48.670;18.260;2023-06-01T01:20:44;256.70;1792.00
49052;DHT22;34866;48.670;18.260;2023-06-01T01:28:32;256.50;2252.80
49052;DHT22;34866;48.670;18.260;2023-06-01T01:31:01;256.50;2227.20
49052;DHT22;34866;48.670;18.260;2023-06-01T01:33:28;256.40;2252.80
49052;DHT22;34866;48.670;18.260;2023-06-01T01:35:54;256.40;2252.80
49052;DHT22;34866;48.670;18.260;2023-06-01T01:38:23;256.30;2252.80
49052;DHT22;34866;48.670;18.260;2023-06-01T01:40:48;256.10;2252.80
49052;DHT22;34866;48.670;18.260;2023-06-01T01:43:19;256.20;2252.80
49052;DHT22;34866;48.670;18.260;2023-06-01T01:45:46;256.20;2252.80
49052;DHT22;34866;48.670;18.260;2023-06-01T01:48:19;256.20;2252.80
49052;DHT22;34866;48.670;18.260;2023-06-01T01:50:58;256.30;2227.20
49052;DHT22;34866;48.670;18.260;2023-06-01T01:53:27;256.30;1920.00
49052;DHT22;34866;48.670;18.260;2023-06-01T01:55:54;256.30;2252.80
49052;DHT22;34866;48.670;18.260;2023-06-01T01:58:20;256.40;2252.80
49052;DHT22;34866;48.670;18.260;2023-06-01T02:00:47;256.30;2073.60
49052;DHT22;34866;48.670;18.260;2023-06-01T02:03:14;256.20;1894.40
49052;DHT22;34866;48.670;18.260;2023-06-01T02:05:40;256.30;2124.80
49052;DHT22;34866;48.670;18.260;2023-06-01T02:08:06;256.20;2252.80
49052;DHT22;34866;48.670;18.260;2023-06-01T02:10:31;231.20;2252.80
49052;DHT22;34866;48.670;18.260;2023-06-01T02:12:57;231.10;2252.80
49052;DHT22;34866;48.670;18.260;2023-06-01T02:15:23;231.00;2252.80
49052;DHT22;34866;48.670;18.260;2023-06-01T02:17:49;231.00;2252.80
49052;DHT22;34866;48.670;18.260;2023-06-01T02:20:15;231.00;2252.80
49052;DHT22;34866;48.670;18.260;2023-06-01T02:22:42;231.00;2252.80
49052;DHT22;34866;48.670;18.260;2023-06-01T02:25:07;231.00;2252.80
49052;DHT22;34866;48.670;18.260;2023-06-01T02:27:33;231.10;2252.80
49052;DHT22;34866;48.670;18.260;2023-06-01T02:29:59;231.10;2252.80
49052;DHT22;34866;48.670;18.260;2023-06-01T02:32:24;231.20;2252.80
49052;DHT22;34866;48.670;18.260;2023-06-01T02:34:51;231.10;2252.80
49052;DHT22;34866;48.670;18.260;2023-06-01T02:37:17;230.90;2252.80
49052;DHT22;34866;48.670;18.260;2023-06-01T02:39:43;230.90;2252.80
49052;DHT22;34866;48.670;18.260;2023-06-01T02:42:08;230.90;2252.80
49052;DHT22;34866;48.670;18.260;2023-06-01T02:44:34;230.80;2252.80
49052;DHT22;34866;48.670;18.260;2023-06-01T02:46:59;230.90;2252.80
49052;DHT22;34866;48.670;18.260;2023-06-01T02:49:25;230.80;2252.80
49052;DHT22;34866;48.670;18.260;2023-06-01T02:51:51;230.90;2252.80
49052;DHT22;34866;48.670;18.260;2023-06-01T02:54:16;230.70;2252.80
49052;DHT22;34866;48.670;18.260;2023-06-01T02:56:42;230.70;2252.80
49052;DHT22;34866;48.670;18.260;2023-06-01T02:59:07;230.70;2252.80
49052;DHT22;34866;48.670;18.260;2023-06-01T03:01:33;230.80;2252.80
49052;DHT22;34866;48.670;18.260;2023-06-01T03:04:03;230.70;2252.80
49052;DHT22;34866;48.670;18.260;2023-06-01T03:06:32;230.90;2252.80
49052;DHT22;34866;48.670;18.260;2023-06-01T03:09:03;230.70;2252.80
49052;DHT22;34866;48.670;18.260;2023-06-01T03:11:28;230.80;2252.80
49052;DHT22;34866;48.670;18.260;2023-06-01T03:13:54;230.90;2252.80
49052;DHT22;34866;48.670;18.260;2023-06-01T03:16:22;230.90;2252.80
49052;DHT22;34866;48.670;18.260;2023-06-01T03:18:49;230.80;2252.80
49052;DHT22;34866;48.670;18.260;2023-06-01T03:21:16;230.90;2252.80
49052;DHT22;34866;48.670;18.260;2023-06-01T03:23:45;230.80;2252.80
49052;DHT22;34866;48.670;18.260;2023-06-01T03:26:14;230.80;2252.80
49052;DHT22;34866;48.670;18.260;2023-06-01T03:28:43;230.90;2252.80
49052;DHT22;34866;48.670;18.260;2023-06-01T03:31:11;230.90;2252.80
49052;DHT22;34866;48.670;18.260;2023-06-01T03:33:37;230.90;2252.80
49052;DHT22;34866;48.670;18.260;2023-06-01T03:36:03;231.00;2252.80
49052;DHT22;34866;48.670;18.260;2023-06-01T03:38:30;231.00;2252.80
49052;DHT22;34866;48.670;18.260;2023-06-01T03:41:01;231.00;2252.80
49052;DHT22;34866;48.670;18.260;2023-06-01T03:43:26;230.90;2252.80
49052;DHT22;34866;48.670;18.260;2023-06-01T03:45:55;231.00;2252.80
49052;DHT22;34866;48.670;18.260;2023-06-01T03:48:21;231.10;2252.80
49052;DHT22;34866;48.670;18.260;2023-06-01T03:50:46;231.10;2252.80
49052;DHT22;34866;48.670;18.260;2023-06-01T03:53:12;231.10;2252.80
49052;DHT22;34866;48.670;18.260;2023-06-01T03:55:38;231.20;2252.80
49052;DHT22;34866;48.670;18.260;2023-06-01T03:58:06;256.00;2252.80
49052;DHT22;34866;48.670;18.260;2023-06-01T04:00:32;256.00;2252.80
49052;DHT22;34866;48.670;18.260;2023-06-01T04:02:59;256.20;2252.80
49052;DHT22;34866;48.670;18.260;2023-06-01T04:05:26;256.20;2252.80
49052;DHT22;34866;48.670;18.260;2023-06-01T04:07:53;256.40;2252.80
49052;DHT22;34866;48.670;18.260;2023-06-01T04:10:20;256.50;2252.80
49052;DHT22;34866;48.670;18.260;2023-06-01T04:12:47;256.60;2252.80
49052;DHT22;34866;48.670;18.260;2023-06-01T04:15:18;256.70;2252.80
49052;DHT22;34866;48.670;18.260;2023-06-01T04:17:44;256.90;2252.80
49052;DHT22;34866;48.670;18.260;2023-06-01T04:20:15;281.60;2278.40
49052;DHT22;34866;48.670;18.260;2023-06-01T04:22:45;281.60;2278.40
49052;DHT22;34866;48.670;18.260;2023-06-01T04:25:13;281.90;2278.40
49052;DHT22;34866;48.670;18.260;2023-06-01T04:27:47;281.90;2278.40
49052;DHT22;34866;48.670;18.260;2023-06-01T04:30:14;282.10;2278.40
49052;DHT22;34866;48.670;18.260;2023-06-01T04:32:41;282.10;2278.40
49052;DHT22;34866;48.670;18.260;2023-06-01T04:35:09;282.30;2278.40
49052;DHT22;34866;48.670;18.260;2023-06-01T04:37:35;282.40;1996.80
49052;DHT22;34866;48.670;18.260;2023-06-01T04:40:03;307.30;1664.00
49052;DHT22;34866;48.670;18.260;2023-06-01T04:42:40;307.40;1843.20
49052;DHT22;34866;48.670;18.260;2023-06-01T04:45:21;307.50;1843.20
49052;DHT22;34866;48.670;18.260;2023-06-01T04:47:48;308.10;1715.20
49052;DHT22;34866;48.670;18.260;2023-06-01T04:50:13;307.90;1433.60
49052;DHT22;34866;48.670;18.260;2023-06-01T04:52:43;308.00;1408.00
49052;DHT22;34866;48.670;18.260;2023-06-01T04:55:10;308.00;1587.20
49052;DHT22;34866;48.670;18.260;2023-06-01T04:57:40;308.00;1945.60
49052;DHT22;34866;48.670;18.260;2023-06-01T05:00:09;332.80;1484.80
49052;DHT22;34866;48.670;18.260;2023-06-01T05:02:42;332.90;435.20
49052;DHT22;34866;48.670;18.260;2023-06-01T05:05:09;333.00;1024.00
49052;DHT22;34866;48.670;18.260;2023-06-01T05:07:39;333.20;563.20
49052;DHT22;34866;48.670;18.260;2023-06-01T05:10:07;333.40;307.20
49052;DHT22;34866;48.670;18.260;2023-06-01T05:12:34;333.40;256.00
49052;DHT22;34866;48.670;18.260;2023-06-01T05:15:02;333.50;256.00
49052;DHT22;34866;48.670;18.260;2023-06-01T05:17:27;333.70;128.00
49052;DHT22;34866;48.670;18.260;2023-06-01T05:19:53;358.50;128.00
49052;DHT22;34866;48.670;18.260;2023-06-01T05:22:19;384.00;128.00
49052;DHT22;34866;48.670;18.260;2023-06-01T05:24:44;384.60;128.00
49052;DHT22;34866;48.670;18.260;2023-06-01T05:27:10;384.00;128.00
49052;DHT22;34866;48.670;18.260;2023-06-01T05:29:36;359.10;128.00
49052;DHT22;34866;48.670;18.260;2023-06-01T05:32:01;359.10;128.00
49052;DHT22;34866;48.670;18.260;2023-06-01T05:34:27;359.30;128.00
49052;DHT22;34866;48.670;18.260;2023-06-01T05:36:54;384.20;128.00
49052;DHT22;34866;48.670;18.260;2023-06-01T05:39:19;384.40;128.00
49052;DHT22;34866;48.670;18.260;2023-06-01T05:41:45;461.00;512.00
49052;DHT22;34866;48.670;18.260;2023-06-01T05:44:11;512.10;128.00
49052;DHT22;34866;48.670;18.260;2023-06-01T05:46:36;512.50;128.00
49052;DHT22;34866;48.670;18.260;2023-06-01T05:49:02;537.60;128.00
49052;DHT22;34866;48.670;18.260;2023-06-01T05:51:27;512.90;128.00
49052;DHT22;34866;48.670;18.260;2023-06-01T05:53:53;537.80;128.00
49052;DHT22;34866;48.670;18.260;2023-06-01T05:56:18;537.80;128.00
49052;DHT22;34866;48.670;18.260;2023-06-01T05:58:45;538.30;128.00
49052;DHT22;34866;48.670;18.260;2023-06-01T06:01:15;537.80;384.00
49052;DHT22;34866;48.670;18.260;2023-06-01T06:03:43;487.30;128.00
49052;DHT22;34866;48.670;18.260;2023-06-01T06:06:10;486.50;128.00
49052;DHT22;34866;48.670;18.260;2023-06-01T06:08:36;435.80;128.00
49052;DHT22;34866;48.670;18.260;2023-06-01T06:11:01;410.50;460.80
49052;DHT22;34866;48.670;18.260;2023-06-01T06:13:28;410.20;128.00
49052;DHT22;34866;48.670;18.260;2023-06-01T06:15:54;435.30;409.60
49052;DHT22;34866;48.670;18.260;2023-06-01T06:18:20;435.70;128.00
49052;DHT22;34866;48.670;18.260;2023-06-01T06:20:46;435.70;128.00
49052;DHT22;34866;48.670;18.260;2023-06-01T06:23:12;435.70;435.20
49052;DHT22;34866;48.670;18.260;2023-06-01T06:25:45;435.90;307.20
49052;DHT22;34866;48.670;18.260;2023-06-01T06:28:14;436.10;128.00
49052;DHT22;34866;48.670;18.260;2023-06-01T06:30:39;461.30;128.00
49052;DHT22;34866;48.670;18.260;2023-06-01T06:33:05;461.20;128.00
49052;DHT22;34866;48.670;18.260;2023-06-01T06:35:31;460.90;128.00
49052;DHT22;34866;48.670;18.260;2023-06-01T06:37:57;461.40;128.00
49052;DHT22;34866;48.670;18.260;2023-06-01T06:40:22;461.30;128.00
49052;DHT22;34866;48.670;18.260;2023-06-01T06:42:49;461.00;128.00
49052;DHT22;34866;48.670;18.260;2023-06-01T06:45:16;460.90;128.00
49052;DHT22;34866;48.670;18.260;2023-06-01T06:47:42;461.00;537.60
49052;DHT22;34866;48.670;18.260;2023-06-01T06:50:11;436.10;128.00
49052;DHT22;34866;48.670;18.260;2023-06-01T06:52:37;461.00;128.00
49052;DHT22;34866;48.670;18.260;2023-06-01T06:55:03;461.20;358.40
49052;DHT22;34866;48.670;18.260;2023-06-01T06:57:28;461.00;307.20
49052;DHT22;34866;48.670;18.260;2023-06-01T06:59:54;461.30;128.00
49052;DHT22;34866;48.670;18.260;2023-06-01T07:02:23;461.30;128.00
49052;DHT22;34866;48.670;18.260;2023-06-01T07:04:51;461.30;128.00
49052;DHT22;34866;48.670;18.260;2023-06-01T07:07:17;461.40;128.00
49052;DHT22;34866;48.670;18.260;2023-06-01T07:09:43;461.50;128.00
49052;DHT22;34866;48.670;18.260;2023-06-01T07:12:10;461.60;128.00
49052;DHT22;34866;48.670;18.260;2023-06-01T07:14:35;486.50;128.00
49052;DHT22;34866;48.670;18.260;2023-06-01T07:17:01;486.70;128.00
49052;DHT22;34866;48.670;18.260;2023-06-01T07:19:30;486.90;128.00
49052;DHT22;34866;48.670;18.260;2023-06-01T07:21:59;487.10;128.00
49052;DHT22;34866;48.670;18.260;2023-06-01T07:24:25;487.10;128.00
49052;DHT22;34866;48.670;18.260;2023-06-01T07:26:51;487.10;128.00
49052;DHT22;34866;48.670;18.260;2023-06-01T07:29:17;486.90;128.00
49052;DHT22;34866;48.670;18.260;2023-06-01T07:31:43;487.30;128.00
49052;DHT22;34866;48.670;18.260;2023-06-01T07:34:09;512.10;128.00
49052;DHT22;34866;48.670;18.260;2023-06-01T07:36:36;487.30;128.00
49052;DHT22;34866;48.670;18.260;2023-06-01T07:39:03;512.00;128.00
49052;DHT22;34866;48.670;18.260;2023-06-01T07:41:34;512.30;128.00
49052;DHT22;34866;48.670;18.260;2023-06-01T07:44:00;512.20;128.00
49052;DHT22;34866;48.670;18.260;2023-06-01T07:46:29;512.40;128.00
49052;DHT22;34866;48.670;18.260;2023-06-01T07:48:58;512.60;128.00
49052;DHT22;34866;48.670;18.260;2023-06-01T07:51:26;512.40;128.00
49052;DHT22;34866;48.670;18.260;2023-06-01T07:53:51;512.60;128.00
49052;DHT22;34866;48.670;18.260;2023-06-01T07:56:18;512.70;128.00
49052;DHT22;34866;48.670;18.260;2023-06-01T07:59:07;537.70;128.00
49052;DHT22;34866;48.670;18.260;2023-06-01T08:01:34;537.60;230.40
49052;DHT22;34866;48.670;18.260;2023-06-01T08:04:02;537.60;128.00
49052;DHT22;34866;48.670;18.260;2023-06-01T08:06:27;537.60;128.00
49052;DHT22;34866;48.670;18.260;2023-06-01T08:08:54;537.70;307.20
49052;DHT22;34866;48.670;18.260;2023-06-01T08:11:32;537.80;640.00
49052;DHT22;34866;48.670;18.260;2023-06-01T08:13:58;537.90;230.40
49052;DHT22;34866;48.670;18.260;2023-06-01T08:16:25;538.00;128.00
49052;DHT22;34866;48.670;18.260;2023-06-01T08:18:52;538.20;384.00
49052;DHT22;34866;48.670;18.260;2023-06-01T08:21:18;538.00;486.40
49052;DHT22;34866;48.670;18.260;2023-06-01T08:23:44;538.10;179.20
49052;DHT22;34866;48.670;18.260;2023-06-01T08:26:10;538.30;128.00
49052;DHT22;34866;48.670;18.260;2023-06-01T08:28:35;538.30;128.00
49052;DHT22;34866;48.670;18.260;2023-06-01T08:31:03;538.40;307.20
49052;DHT22;34866;48.670;18.260;2023-06-01T08:33:29;563.20;256.00
49052;DHT22;34866;48.670;18.260;2023-06-01T08:35:54;538.50;128.00
49052;DHT22;34866;48.670;18.260;2023-06-01T08:38:48;563.40;128.00
49052;DHT22;34866;48.670;18.260;2023-06-01T08:43:45;563.50;128.00
49052;DHT22;34866;48.670;18.260;2023-06-01T08:46:13;563.70;128.00
49052;DHT22;34866;48.670;18.260;2023-06-01T08:48:42;563.60;128.00
49052;DHT22;34866;48.670;18.260;2023-06-01T08:51:09;563.80;128.00
49052;DHT22;34866;48.670;18.260;2023-06-01T08:53:36;563.70;128.00
49052;DHT22;34866;48.670;18.260;2023-06-01T08:56:07;563.90;128.00
49052;DHT22;34866;48.670;18.260;2023-06-01T08:58:52;563.60;128.00
49052;DHT22;34866;48.670;18.260;2023-06-01T09:01:19;563.80;128.00
49052;DHT22;34866;48.670;18.260;2023-06-01T09:03:48;564.10;128.00
49052;DHT22;34866;48.670;18.260;2023-06-01T09:06:14;564.10;128.00
49052;DHT22;34866;48.670;18.260;2023-06-01T09:08:41;589.00;128.00
49052;DHT22;34866;48.670;18.260;2023-06-01T09:11:07;564.10;128.00
49052;DHT22;34866;48.670;18.260;2023-06-01T09:16:58;589.20;128.00
49052;DHT22;34866;48.670;18.260;2023-06-01T09:19:45;589.10;128.00
49052;DHT22;34866;48.670;18.260;2023-06-01T09:22:43;589.00;128.00
49052;DHT22;34866;48.670;18.260;2023-06-01T09:25:11;589.20;128.00
49052;DHT22;34866;48.670;18.260;2023-06-01T09:27:47;589.30;128.00
49052;DHT22;34866;48.670;18.260;2023-06-01T09:30:14;589.40;128.00
49052;DHT22;34866;48.670;18.260;2023-06-01T09:32:40;589.20;128.00
49052;DHT22;34866;48.670;18.260;2023-06-01T09:35:12;589.50;128.00
49052;DHT22;34866;48.670;18.260;2023-06-01T09:37:38;589.50;128.00
49052;DHT22;34866;48.670;18.260;2023-06-01T09:40:17;589.50;128.00
49052;DHT22;34866;48.670;18.260;2023-06-01T09:42:43;589.50;128.00
49052;DHT22;34866;48.670;18.260;2023-06-01T09:45:20;589.70;128.00
49052;DHT22;34866;48.670;18.260;2023-06-01T09:47:47;589.70;128.00
49052;DHT22;34866;48.670;18.260;2023-06-01T09:50:35;589.50;128.00
49052;DHT22;34866;48.670;18.260;2023-06-01T09:53:01;589.50;128.00
49052;DHT22;34866;48.670;18.260;2023-06-01T09:55:27;589.40;128.00
49052;DHT22;34866;48.670;18.260;2023-06-01T10:00:50;589.60;128.00
49052;DHT22;34866;48.670;18.260;2023-06-01T10:03:17;589.60;128.00
49052;DHT22;34866;48.670;18.260;2023-06-01T10:05:45;614.60;128.00
49052;DHT22;34866;48.670;18.260;2023-06-01T10:08:13;614.60;128.00
49052;DHT22;34866;48.670;18.260;2023-06-01T10:10:59;614.60;128.00
49052;DHT22;34866;48.670;18.260;2023-06-01T10:13:51;614.80;128.00
49052;DHT22;34866;48.670;18.260;2023-06-01T10:16:16;615.00;128.00
49052;DHT22;34866;48.670;18.260;2023-06-01T10:18:43;614.80;128.00
49052;DHT22;34866;48.670;18.260;2023-06-01T10:21:12;615.00;128.00
49052;DHT22;34866;48.670;18.260;2023-06-01T10:23:53;615.00;128.00
49052;DHT22;34866;48.670;18.260;2023-06-01T10:26:30;614.80;128.00
49052;DHT22;34866;48.670;18.260;2023-06-01T10:29:00;614.60;128.00
49052;DHT22;34866;48.670;18.260;2023-06-01T10:31:46;615.10;128.00
49052;DHT22;34866;48.670;18.260;2023-06-01T10:34:14;615.20;128.00
49052;DHT22;34866;48.670;18.260;2023-06-01T10:39:38;640.00;128.00
49052;DHT22;34866;48.670;18.260;2023-06-01T10:48:52;640.00;128.00
49052;DHT22;34866;48.670;18.260;2023-06-01T10:53:52;640.40;128.00
49052;DHT22;34866;48.670;18.260;2023-06-01T10:56:27;640.20;128.00
49052;DHT22;34866;48.670;18.260;2023-06-01T10:59:13;640.70;128.00
49052;DHT22;34866;48.670;18.260;2023-06-01T11:02:03;640.30;128.00
49052;DHT22;34866;48.670;18.260;2023-06-01T11:04:37;640.40;128.00
49052;DHT22;34866;48.670;18.260;2023-06-01T11:13:35;640.50;128.00
49052;DHT22;34866;48.670;18.260;2023-06-01T11:16:27;640.20;128.00
49052;DHT22;34866;48.670;18.260;2023-06-01T11:19:01;640.60;128.00
49052;DHT22;34866;48.670;18.260;2023-06-01T11:21:34;640.50;128.00
49052;DHT22;34866;48.670;18.260;2023-06-01T11:26:46;640.80;128.00
49052;DHT22;34866;48.670;18.260;2023-06-01T11:31:46;640.20;128.00
49052;DHT22;34866;48.670;18.260;2023-06-01T11:34:15;665.70;153.60
49052;DHT22;34866;48.670;18.260;2023-06-01T11:37:18;665.80;153.60
49052;DHT22;34866;48.670;18.260;2023-06-01T11:39:50;665.70;153.60
49052;DHT22;34866;48.670;18.260;2023-06-01T11:42:18;640.90;128.00
49052;DHT22;34866;48.670;18.260;2023-06-01T11:44:45;640.60;128.00
49052;DHT22;34866;48.670;18.260;2023-06-01T11:47:12;640.80;128.00
49052;DHT22;34866;48.670;18.260;2023-06-01T11:49:44;665.70;153.60
49052;DHT22;34866;48.670;18.260;2023-06-01T11:52:16;665.90;153.60
49052;DHT22;34866;48.670;18.260;2023-06-01T11:54:42;665.70;153.60
49052;DHT22;34866;48.670;18.260;2023-06-01T11:57:34;665.90;153.60
49052;DHT22;34866;48.670;18.260;2023-06-01T12:00:02;640.90;128.00
49052;DHT22;34866;48.670;18.260;2023-06-01T12:02:29;665.80;153.60
49052;DHT22;34866;48.670;18.260;2023-06-01T12:07:25;666.30;153.60
49052;DHT22;34866;48.670;18.260;2023-06-01T12:09:52;666.30;153.60
49052;DHT22;34866;48.670;18.260;2023-06-01T12:12:24;666.10;153.60
49052;DHT22;34866;48.670;18.260;2023-06-01T12:15:20;666.10;153.60
49052;DHT22;34866;48.670;18.260;2023-06-01T12:18:36;640.90;128.00
49052;DHT22;34866;48.670;18.260;2023-06-01T12:21:23;666.40;153.60
49052;DHT22;34866;48.670;18.260;2023-06-01T12:23:49;666.50;153.60
49052;DHT22;34866;48.670;18.260;2023-06-01T12:26:40;666.10;153.60
49052;DHT22;34866;48.670;18.260;2023-06-01T12:29:07;666.10;153.60
49052;DHT22;34866;48.670;18.260;2023-06-01T12:31:36;666.50;153.60
49052;DHT22;34866;48.670;18.260;2023-06-01T12:34:03;691.30;153.60
49052;DHT22;34866;48.670;18.260;2023-06-01T12:36:40;691.50;153.60
49052;DHT22;34866;48.670;18.260;2023-06-01T12:39:05;666.30;153.60
49052;DHT22;34866;48.670;18.260;2023-06-01T12:41:31;691.20;153.60
49052;DHT22;34866;48.670;18.260;2023-06-01T12:44:03;666.20;153.60
49052;DHT22;34866;48.670;18.260;2023-06-01T12:47:12;666.40;153.60
49052;DHT22;34866;48.670;18.260;2023-06-01T12:49:37;691.20;153.60
49052;DHT22;34866;48.670;18.260;2023-06-01T12:52:05;691.30;153.60
49052;DHT22;34866;48.670;18.260;2023-06-01T12:54:51;666.50;153.60
49052;DHT22;34866;48.670;18.260;2023-06-01T12:57:16;666.50;153.60
49052;DHT22;34866;48.670;18.260;2023-06-01T12:59:42;666.50;153.60
49052;DHT22;34866;48.670;18.260;2023-06-01T13:02:08;691.20;153.60
49052;DHT22;34866;48.670;18.260;2023-06-01T13:04:34;691.50;153.60
49052;DHT22;34866;48.670;18.260;2023-06-01T13:07:00;691.20;153.60
49052;DHT22;34866;48.670;18.260;2023-06-01T13:09:27;691.50;153.60
49052;DHT22;34866;48.670;18.260;2023-06-01T13:11:53;691.40;153.60
49052;DHT22;34866;48.670;18.260;2023-06-01T13:14:19;666.30;153.60
49052;DHT22;34866;48.670;18.260;2023-06-01T13:16:45;666.40;153.60
49052;DHT22;34866;48.670;18.260;2023-06-01T13:19:12;666.40;153.60
49052;DHT22;34866;48.670;18.260;2023-06-01T13:21:38;691.20;153.60
49052;DHT22;34866;48.670;18.260;2023-06-01T13:24:06;691.30;153.60
49052;DHT22;34866;48.670;18.260;2023-06-01T13:26:36;666.50;153.60
49052;DHT22;34866;48.670;18.260;2023-06-01T13:29:05;691.50;153.60
49052;DHT22;34866;48.670;18.260;2023-06-01T13:31:33;666.30;153.60
49052;DHT22;34866;48.670;18.260;2023-06-01T13:34:00;691.20;153.60
49052;DHT22;34866;48.670;18.260;2023-06-01T13:36:26;666.40;153.60
49052;DHT22;34866;48.670;18.260;2023-06-01T13:38:58;691.50;153.60
49052;DHT22;34866;48.670;18.260;2023-06-01T13:41:25;691.40;153.60
49052;DHT22;34866;48.670;18.260;2023-06-01T13:43:50;666.30;153.60
49052;DHT22;34866;48.670;18.260;2023-06-01T13:46:16;666.40;153.60
49052;DHT22;34866;48.670;18.260;2023-06-01T13:48:42;666.50;153.60
49052;DHT22;34866;48.670;18.260;2023-06-01T13:51:09;666.40;153.60
49052;DHT22;34866;48.670;18.260;2023-06-01T13:53:35;666.30;153.60
49052;DHT22;34866;48.670;18.260;2023-06-01T13:56:04;666.50;153.60
49052;DHT22;34866;48.670;18.260;2023-06-01T13:59:18;666.50;153.60
49052;DHT22;34866;48.670;18.260;2023-06-01T14:01:44;666.40;153.60
49052;DHT22;34866;48.670;18.260;2023-06-01T14:04:10;666.50;153.60
49052;DHT22;34866;48.670;18.260;2023-06-01T14:06:35;691.20;153.60
49052;DHT22;34866;48.670;18.260;2023-06-01T14:09:01;666.40;153.60
49052;DHT22;34866;48.670;18.260;2023-06-01T14:11:27;666.40;153.60
49052;DHT22;34866;48.670;18.260;2023-06-01T14:13:53;666.00;153.60
49052;DHT22;34866;48.670;18.260;2023-06-01T14:16:19;691.20;153.60
49052;DHT22;34866;48.670;18.260;2023-06-01T14:18:44;691.60;153.60
49052;DHT22;34866;48.670;18.260;2023-06-01T14:21:10;691.20;153.60
49052;DHT22;34866;48.670;18.260;2023-06-01T14:23:36;691.60;153.60
49052;DHT22;34866;48.670;18.260;2023-06-01T14:26:02;691.70;153.60
49052;DHT22;34866;48.670;18.260;2023-06-01T14:28:28;666.10;153.60
49052;DHT22;34866;48.670;18.260;2023-06-01T14:30:53;691.40;153.60
49052;DHT22;34866;48.670;18.260;2023-06-01T14:33:19;691.60;153.60
49052;DHT22;34866;48.670;18.260;2023-06-01T14:35:45;691.40;153.60
49052;DHT22;34866;48.670;18.260;2023-06-01T14:38:14;666.30;153.60
49052;DHT22;34866;48.670;18.260;2023-06-01T14:40:39;666.40;153.60
49052;DHT22;34866;48.670;18.260;2023-06-01T14:43:05;691.30;153.60
49052;DHT22;34866;48.670;18.260;2023-06-01T14:45:31;691.60;153.60
49052;DHT22;34866;48.670;18.260;2023-06-01T14:47:57;691.60;153.60
49052;DHT22;34866;48.670;18.260;2023-06-01T14:50:22;691.60;153.60
49052;DHT22;34866;48.670;18.260;2023-06-01T14:52:48;691.60;153.60
49052;DHT22;34866;48.670;18.260;2023-06-01T14:55:14;691.50;153.60
49052;DHT22;34866;48.670;18.260;2023-06-01T14:57:42;666.40;153.60
49052;DHT22;34866;48.670;18.260;2023-06-01T15:00:11;691.20;153.60
49052;DHT22;34866;48.670;18.260;2023-06-01T15:03:00;691.40;153.60
49052;DHT22;34866;48.670;18.260;2023-06-01T15:05:26;691.50;153.60
49052;DHT22;34866;48.670;18.260;2023-06-01T15:07:55;666.40;153.60
49052;DHT22;34866;48.670;18.260;2023-06-01T15:10:20;666.50;153.60
49052;DHT22;34866;48.670;18.260;2023-06-01T15:12:46;691.40;153.60
49052;DHT22;34866;48.670;18.260;2023-06-01T15:15:13;691.40;153.60
49052;DHT22;34866;48.670;18.260;2023-06-01T15:17:39;691.60;153.60
49052;DHT22;34866;48.670;18.260;2023-06-01T15:20:08;666.40;153.60
49052;DHT22;34866;48.670;18.260;2023-06-01T15:22:33;666.40;153.60
49052;DHT22;34866;48.670;18.260;2023-06-01T15:24:59;666.50;153.60
49052;DHT22;34866;48.670;18.260;2023-06-01T15:27:25;691.40;153.60
49052;DHT22;34866;48.670;18.260;2023-06-01T15:29:50;666.40;153.60
49052;DHT22;34866;48.670;18.260;2023-06-01T15:32:16;666.00;153.60
49052;DHT22;34866;48.670;18.260;2023-06-01T15:34:42;665.80;153.60
49052;DHT22;34866;48.670;18.260;2023-06-01T15:37:09;666.10;153.60
49052;DHT22;34866;48.670;18.260;2023-06-01T15:39:35;640.90;128.00
49052;DHT22;34866;48.670;18.260;2023-06-01T15:42:05;640.80;128.00